sensor_id;sensor_type;location;lat;lon;timestamp;temperature;humidity
39371;DHT22;25099;51.946;4.838;2024-02-26T00:00:34;7.10;99.90
39371;DHT22;25099;51.946;4.838;2024-02-26T00:03:00;7.10;99.90
39371;DHT22;25099;51.946;4.838;2024-02-26T00:05:26;7.10;99.90
39371;DHT22;25099;51.946;4.838;2024-02-26T00:07:51;7.10;99.90
39371;DHT22;25099;51.946;4.838;2024-02-26T00:10:17;7.10;99.90
39371;DHT22;25099;51.946;4.838;2024-02-26T00:12:43;7.10;99.90
39371;DHT22;25099;51.946;4.838;2024-02-26T00:15:09;7.10;99.90
39371;DHT22;25099;51.946;4.838;2024-02-26T00:17:35;7.20;99.90
39371;DHT22;25099;51.946;4.838;2024-02-26T00:20:04;7.10;99.90
39371;DHT22;25099;51.946;4.838;2024-02-26T00:22:33;7.10;99.90
39371;DHT22;25099;51.946;4.838;2024-02-26T00:24:59;7.10;99.90
39371;DHT22;25099;51.946;4.838;2024-02-26T00:27:24;7.10;99.90
39371;DHT22;25099;51.946;4.838;2024-02-26T00:29:50;7.10;99.90
39371;DHT22;25099;51.946;4.838;2024-02-26T00:32:15;7.10;99.90
39371;DHT22;25099;51.946;4.838;2024-02-26T00:34:41;7.10;99.90
39371;DHT22;25099;51.946;4.838;2024-02-26T00:37:07;7.10;99.90
39371;DHT22;25099;51.946;4.838;2024-02-26T00:39:32;7.00;99.90
39371;DHT22;25099;51.946;4.838;2024-02-26T00:41:58;7.10;99.90
39371;DHT22;25099;51.946;4.838;2024-02-26T00:44:23;7.00;99.90
39371;DHT22;25099;51.946;4.838;2024-02-26T00:46:49;7.00;99.90
39371;DHT22;25099;51.946;4.838;2024-02-26T00:49:14;7.00;99.90
39371;DHT22;25099;51.946;4.838;2024-02-26T00:51:40;7.00;99.90
39371;DHT22;25099;51.946;4.838;2024-02-26T00:54:05;7.00;99.90
39371;DHT22;25099;51.946;4.838;2024-02-26T00:56:31;7.10;99.90
39371;DHT22;25099;51.946;4.838;2024-02-26T00:58:56;7.00;99.90
39371;DHT22;25099;51.946;4.838;2024-02-26T01:01:22;7.00;99.90
39371;DHT22;25099;51.946;4.838;2024-02-26T01:03:47;7.00;99.90
39371;DHT22;25099;51.946;4.838;2024-02-26T01:06:13;7.00;99.90
39371;DHT22;25099;51.946;4.838;2024-02-26T01:08:39;7.00;99.90
39371;DHT22;25099;51.946;4.838;2024-02-26T01:11:04;7.00;99.90
39371;DHT22;25099;51.946;4.838;2024-02-26T01:13:30;7.00;99.90
39371;DHT22;25099;51.946;4.838;2024-02-26T01:15:56;7.00;99.90
39371;DHT22;25099;51.946;4.838;2024-02-26T01:18:21;7.00;99.90
39371;DHT22;25099;51.946;4.838;2024-02-26T01:20:47;7.00;99.90
39371;DHT22;25099;51.946;4.838;2024-02-26T01:23:13;7.00;99.90
39371;DHT22;25099;51.946;4.838;2024-02-26T01:25:38;7.00;99.90
39371;DHT22;25099;51.946;4.838;2024-02-26T01:28:05;7.00;99.90
39371;DHT22;25099;51.946;4.838;2024-02-26T01:30:31;7.00;99.90
39371;DHT22;25099;51.946;4.838;2024-02-26T01:32:56;6.90;99.90
39371;DHT22;25099;51.946;4.838;2024-02-26T01:35:22;6.90;99.90
39371;DHT22;25099;51.946;4.838;2024-02-26T01:37:48;6.90;99.90
39371;DHT22;25099;51.946;4.838;2024-02-26T01:40:14;7.00;99.90
39371;DHT22;25099;51.946;4.838;2024-02-26T01:42:45;7.00;99.90
39371;DHT22;25099;51.946;4.838;2024-02-26T01:45:15;6.90;99.90
39371;DHT22;25099;51.946;4.838;2024-02-26T01:47:46;6.90;99.90
39371;DHT22;25099;51.946;4.838;2024-02-26T01:50:12;6.90;99.90
39371;DHT22;25099;51.946;4.838;2024-02-26T01:52:37;6.90;99.90
39371;DHT22;25099;51.946;4.838;2024-02-26T01:55:03;6.90;99.90
39371;DHT22;25099;51.946;4.838;2024-02-26T01:57:29;6.90;99.90
39371;DHT22;25099;51.946;4.838;2024-02-26T01:59:55;6.90;99.90
39371;DHT22;25099;51.946;4.838;2024-02-26T02:02:21;6.90;99.90
39371;DHT22;25099;51.946;4.838;2024-02-26T02:04:46;6.90;99.90
39371;DHT22;25099;51.946;4.838;2024-02-26T02:07:12;7.00;99.90
39371;DHT22;25099;51.946;4.838;2024-02-26T02:09:38;7.00;99.90
39371;DHT22;25099;51.946;4.838;2024-02-26T02:12:04;7.00;99.90
39371;DHT22;25099;51.946;4.838;2024-02-26T02:14:30;7.00;99.90
39371;DHT22;25099;51.946;4.838;2024-02-26T02:16:56;7.00;99.90
39371;DHT22;25099;51.946;4.838;2024-02-26T02:19:21;7.00;99.90
39371;DHT22;25099;51.946;4.838;2024-02-26T02:21:47;7.00;99.90
39371;DHT22;25099;51.946;4.838;2024-02-26T02:24:12;7.00;99.90
39371;DHT22;25099;51.946;4.838;2024-02-26T02:26:38;7.00;99.90
39371;DHT22;25099;51.946;4.838;2024-02-26T02:29:06;6.90;99.90
39371;DHT22;25099;51.946;4.838;2024-02-26T02:31:32;6.80;99.90
39371;DHT22;25099;51.946;4.838;2024-02-26T02:33:58;7.00;99.90
39371;DHT22;25099;51.946;4.838;2024-02-26T02:36:24;6.90;99.90
39371;DHT22;25099;51.946;4.838;2024-02-26T02:38:51;6.90;99.90
39371;DHT22;25099;51.946;4.838;2024-02-26T02:41:16;6.90;99.90
39371;DHT22;25099;51.946;4.838;2024-02-26T02:43:42;7.00;99.90
39371;DHT22;25099;51.946;4.838;2024-02-26T02:46:07;7.00;99.90
39371;DHT22;25099;51.946;4.838;2024-02-26T02:48:33;7.00;99.90
39371;DHT22;25099;51.946;4.838;2024-02-26T02:50:59;7.00;99.90
39371;DHT22;25099;51.946;4.838;2024-02-26T02:53:24;7.00;99.90
39371;DHT22;25099;51.946;4.838;2024-02-26T02:55:50;6.90;99.90
39371;DHT22;25099;51.946;4.838;2024-02-26T02:58:15;7.00;99.90
39371;DHT22;25099;51.946;4.838;2024-02-26T03:00:41;7.00;99.90
39371;DHT22;25099;51.946;4.838;2024-02-26T03:03:07;7.00;99.90
39371;DHT22;25099;51.946;4.838;2024-02-26T03:05:32;7.00;99.90
39371;DHT22;25099;51.946;4.838;2024-02-26T03:07:58;7.00;99.90
39371;DHT22;25099;51.946;4.838;2024-02-26T03:10:23;7.00;99.90
39371;DHT22;25099;51.946;4.838;2024-02-26T03:12:49;7.00;99.90
39371;DHT22;25099;51.946;4.838;2024-02-26T03:15:15;7.00;99.90
39371;DHT22;25099;51.946;4.838;2024-02-26T03:17:41;7.50;99.90
39371;DHT22;25099;51.946;4.838;2024-02-26T03:20:07;7.00;99.90
39371;DHT22;25099;51.946;4.838;2024-02-26T03:22:35;7.00;99.90
39371;DHT22;25099;51.946;4.838;2024-02-26T03:25:00;7.00;99.90
39371;DHT22;25099;51.946;4.838;2024-02-26T03:27:26;7.00;99.90
39371;DHT22;25099;51.946;4.838;2024-02-26T03:29:52;7.00;99.90
39371;DHT22;25099;51.946;4.838;2024-02-26T03:32:18;7.00;99.90
39371;DHT22;25099;51.946;4.838;2024-02-26T03:34:44;7.00;99.90
39371;DHT22;25099;51.946;4.838;2024-02-26T03:37:09;7.00;99.90
39371;DHT22;25099;51.946;4.838;2024-02-26T03:39:36;7.00;99.90
39371;DHT22;25099;51.946;4.838;2024-02-26T03:42:02;7.00;99.90
39371;DHT22;25099;51.946;4.838;2024-02-26T03:44:27;7.00;99.90
39371;DHT22;25099;51.946;4.838;2024-02-26T03:46:53;7.00;99.90
39371;DHT22;25099;51.946;4.838;2024-02-26T03:49:20;6.90;99.90
39371;DHT22;25099;51.946;4.838;2024-02-26T03:51:45;6.90;99.90
39371;DHT22;25099;51.946;4.838;2024-02-26T03:54:11;6.80;99.90
39371;DHT22;25099;51.946;4.838;2024-02-26T03:56:36;6.80;99.90
39371;DHT22;25099;51.946;4.838;2024-02-26T03:59:02;6.80;99.90
39371;DHT22;25099;51.946;4.838;2024-02-26T04:01:28;6.80;99.90
39371;DHT22;25099;51.946;4.838;2024-02-26T04:03:54;6.70;99.90
39371;DHT22;25099;51.946;4.838;2024-02-26T04:06:19;6.70;99.90
39371;DHT22;25099;51.946;4.838;2024-02-26T04:08:46;6.70;99.90
39371;DHT22;25099;51.946;4.838;2024-02-26T04:11:12;6.60;99.90
39371;DHT22;25099;51.946;4.838;2024-02-26T04:13:38;6.60;99.90
39371;DHT22;25099;51.946;4.838;2024-02-26T04:16:05;6.50;99.90
39371;DHT22;25099;51.946;4.838;2024-02-26T04:18:32;6.60;99.90
39371;DHT22;25099;51.946;4.838;2024-02-26T04:20:57;6.60;99.90
39371;DHT22;25099;51.946;4.838;2024-02-26T04:23:23;6.60;99.90
39371;DHT22;25099;51.946;4.838;2024-02-26T04:25:49;6.60;99.90
39371;DHT22;25099;51.946;4.838;2024-02-26T04:28:14;6.60;99.90
39371;DHT22;25099;51.946;4.838;2024-02-26T04:30:40;6.60;99.90
39371;DHT22;25099;51.946;4.838;2024-02-26T04:33:06;6.60;99.90
39371;DHT22;25099;51.946;4.838;2024-02-26T04:35:31;6.60;99.90
39371;DHT22;25099;51.946;4.838;2024-02-26T04:37:57;6.50;99.90
39371;DHT22;25099;51.946;4.838;2024-02-26T04:40:23;6.50;99.90
39371;DHT22;25099;51.946;4.838;2024-02-26T04:42:49;6.50;99.90
39371;DHT22;25099;51.946;4.838;2024-02-26T04:45:14;6.50;99.90
39371;DHT22;25099;51.946;4.838;2024-02-26T04:47:40;6.50;99.90
39371;DHT22;25099;51.946;4.838;2024-02-26T04:50:06;6.50;99.90
39371;DHT22;25099;51.946;4.838;2024-02-26T04:52:32;6.50;99.90
39371;DHT22;25099;51.946;4.838;2024-02-26T04:54:57;6.80;99.90
39371;DHT22;25099;51.946;4.838;2024-02-26T04:57:25;6.50;99.90
39371;DHT22;25099;51.946;4.838;2024-02-26T04:59:51;6.50;99.90
39371;DHT22;25099;51.946;4.838;2024-02-26T05:02:17;6.50;99.90
39371;DHT22;25099;51.946;4.838;2024-02-26T05:04:43;6.40;99.90
39371;DHT22;25099;51.946;4.838;2024-02-26T05:07:09;6.40;99.90
39371;DHT22;25099;51.946;4.838;2024-02-26T05:09:34;6.40;99.90
39371;DHT22;25099;51.946;4.838;2024-02-26T05:12:00;6.40;99.90
39371;DHT22;25099;51.946;4.838;2024-02-26T05:14:26;6.40;99.90
39371;DHT22;25099;51.946;4.838;2024-02-26T05:16:51;6.40;99.90
39371;DHT22;25099;51.946;4.838;2024-02-26T05:19:17;6.40;99.90
39371;DHT22;25099;51.946;4.838;2024-02-26T05:21:42;6.40;99.90
39371;DHT22;25099;51.946;4.838;2024-02-26T05:24:09;6.40;99.90
39371;DHT22;25099;51.946;4.838;2024-02-26T05:26:35;6.40;99.90
39371;DHT22;25099;51.946;4.838;2024-02-26T05:29:01;6.40;99.90
39371;DHT22;25099;51.946;4.838;2024-02-26T05:31:27;6.40;99.90
39371;DHT22;25099;51.946;4.838;2024-02-26T05:33:54;6.50;99.90
39371;DHT22;25099;51.946;4.838;2024-02-26T05:36:20;6.40;99.90
39371;DHT22;25099;51.946;4.838;2024-02-26T05:38:47;6.40;99.90
39371;DHT22;25099;51.946;4.838;2024-02-26T05:41:17;6.40;99.90
39371;DHT22;25099;51.946;4.838;2024-02-26T05:43:51;6.40;99.90
39371;DHT22;25099;51.946;4.838;2024-02-26T05:46:20;6.40;99.90
39371;DHT22;25099;51.946;4.838;2024-02-26T05:48:55;6.40;99.90
39371;DHT22;25099;51.946;4.838;2024-02-26T05:51:20;6.40;99.90
39371;DHT22;25099;51.946;4.838;2024-02-26T05:53:46;6.40;99.90
39371;DHT22;25099;51.946;4.838;2024-02-26T05:56:19;6.40;99.90
39371;DHT22;25099;51.946;4.838;2024-02-26T05:58:45;6.40;99.90
39371;DHT22;25099;51.946;4.838;2024-02-26T06:01:10;6.40;99.90
39371;DHT22;25099;51.946;4.838;2024-02-26T06:03:36;6.40;99.90
39371;DHT22;25099;51.946;4.838;2024-02-26T06:06:02;6.40;99.90
39371;DHT22;25099;51.946;4.838;2024-02-26T06:08:27;6.40;99.90
39371;DHT22;25099;51.946;4.838;2024-02-26T06:10:53;6.40;99.90
39371;DHT22;25099;51.946;4.838;2024-02-26T06:13:18;6.40;99.90
39371;DHT22;25099;51.946;4.838;2024-02-26T06:15:44;6.40;99.90
39371;DHT22;25099;51.946;4.838;2024-02-26T06:18:09;6.40;99.90
39371;DHT22;25099;51.946;4.838;2024-02-26T06:20:35;6.40;99.90
39371;DHT22;25099;51.946;4.838;2024-02-26T06:23:00;6.40;99.90
39371;DHT22;25099;51.946;4.838;2024-02-26T06:25:26;6.40;99.90
39371;DHT22;25099;51.946;4.838;2024-02-26T06:27:51;6.40;99.90
39371;DHT22;25099;51.946;4.838;2024-02-26T06:30:17;6.40;99.90
39371;DHT22;25099;51.946;4.838;2024-02-26T06:32:42;6.40;99.90
39371;DHT22;25099;51.946;4.838;2024-02-26T06:35:08;6.40;99.90
39371;DHT22;25099;51.946;4.838;2024-02-26T06:37:36;6.40;99.90
39371;DHT22;25099;51.946;4.838;2024-02-26T06:40:02;6.40;99.90
39371;DHT22;25099;51.946;4.838;2024-02-26T06:42:35;6.40;99.90
39371;DHT22;25099;51.946;4.838;2024-02-26T06:45:01;6.30;99.90
39371;DHT22;25099;51.946;4.838;2024-02-26T06:47:26;6.30;99.90
39371;DHT22;25099;51.946;4.838;2024-02-26T06:49:52;6.30;99.90
39371;DHT22;25099;51.946;4.838;2024-02-26T06:52:17;6.30;99.90
39371;DHT22;25099;51.946;4.838;2024-02-26T06:54:43;6.30;99.90
39371;DHT22;25099;51.946;4.838;2024-02-26T06:57:10;6.20;99.90
39371;DHT22;25099;51.946;4.838;2024-02-26T06:59:35;6.20;99.90
39371;DHT22;25099;51.946;4.838;2024-02-26T07:02:01;6.20;99.90
39371;DHT22;25099;51.946;4.838;2024-02-26T07:04:26;6.30;99.90
39371;DHT22;25099;51.946;4.838;2024-02-26T07:06:52;6.20;99.90
39371;DHT22;25099;51.946;4.838;2024-02-26T07:09:17;6.30;99.90
39371;DHT22;25099;51.946;4.838;2024-02-26T07:11:43;6.20;99.90
39371;DHT22;25099;51.946;4.838;2024-02-26T07:14:09;6.30;99.90
39371;DHT22;25099;51.946;4.838;2024-02-26T07:16:35;6.20;99.90
39371;DHT22;25099;51.946;4.838;2024-02-26T07:19:00;6.20;99.90
39371;DHT22;25099;51.946;4.838;2024-02-26T07:21:26;6.20;99.90
39371;DHT22;25099;51.946;4.838;2024-02-26T07:23:52;6.30;99.90
39371;DHT22;25099;51.946;4.838;2024-02-26T07:26:17;6.30;99.90
39371;DHT22;25099;51.946;4.838;2024-02-26T07:28:44;6.30;99.90
39371;DHT22;25099;51.946;4.838;2024-02-26T07:31:10;6.30;99.90
39371;DHT22;25099;51.946;4.838;2024-02-26T07:33:35;6.30;99.90
39371;DHT22;25099;51.946;4.838;2024-02-26T07:36:01;6.30;99.90
39371;DHT22;25099;51.946;4.838;2024-02-26T07:38:27;6.30;99.90
39371;DHT22;25099;51.946;4.838;2024-02-26T07:40:53;6.70;99.90
39371;DHT22;25099;51.946;4.838;2024-02-26T07:43:18;6.30;99.90
39371;DHT22;25099;51.946;4.838;2024-02-26T07:45:44;6.20;99.90
39371;DHT22;25099;51.946;4.838;2024-02-26T07:48:09;6.20;99.90
39371;DHT22;25099;51.946;4.838;2024-02-26T07:50:35;7.30;99.90
39371;DHT22;25099;51.946;4.838;2024-02-26T07:53:01;6.30;99.90
39371;DHT22;25099;51.946;4.838;2024-02-26T07:55:27;6.20;99.90
39371;DHT22;25099;51.946;4.838;2024-02-26T07:57:52;7.00;99.90
39371;DHT22;25099;51.946;4.838;2024-02-26T08:00:18;6.20;99.90
39371;DHT22;25099;51.946;4.838;2024-02-26T08:02:44;6.20;99.90
39371;DHT22;25099;51.946;4.838;2024-02-26T08:05:10;6.20;99.90
39371;DHT22;25099;51.946;4.838;2024-02-26T08:07:35;6.20;99.90
39371;DHT22;25099;51.946;4.838;2024-02-26T08:10:03;6.20;99.90
39371;DHT22;25099;51.946;4.838;2024-02-26T08:12:29;6.30;99.90
39371;DHT22;25099;51.946;4.838;2024-02-26T08:14:55;6.30;99.90
39371;DHT22;25099;51.946;4.838;2024-02-26T08:17:21;6.30;99.90
39371;DHT22;25099;51.946;4.838;2024-02-26T08:19:46;6.40;99.90
39371;DHT22;25099;51.946;4.838;2024-02-26T08:22:12;6.30;99.90
39371;DHT22;25099;51.946;4.838;2024-02-26T08:24:42;6.20;99.90
39371;DHT22;25099;51.946;4.838;2024-02-26T08:27:07;6.30;99.90
39371;DHT22;25099;51.946;4.838;2024-02-26T08:29:33;6.20;99.90
39371;DHT22;25099;51.946;4.838;2024-02-26T08:31:58;6.20;99.90
39371;DHT22;25099;51.946;4.838;2024-02-26T08:34:25;6.20;99.90
39371;DHT22;25099;51.946;4.838;2024-02-26T08:36:50;6.20;99.90
39371;DHT22;25099;51.946;4.838;2024-02-26T08:39:16;6.20;99.90
39371;DHT22;25099;51.946;4.838;2024-02-26T08:41:43;6.30;99.90
39371;DHT22;25099;51.946;4.838;2024-02-26T08:44:09;6.30;99.90
39371;DHT22;25099;51.946;4.838;2024-02-26T08:46:35;6.20;99.90
39371;DHT22;25099;51.946;4.838;2024-02-26T08:49:00;6.20;99.90
39371;DHT22;25099;51.946;4.838;2024-02-26T08:51:26;6.20;99.90
39371;DHT22;25099;51.946;4.838;2024-02-26T08:53:51;6.20;99.90
39371;DHT22;25099;51.946;4.838;2024-02-26T08:56:17;6.20;99.90
39371;DHT22;25099;51.946;4.838;2024-02-26T08:58:43;6.20;99.90
39371;DHT22;25099;51.946;4.838;2024-02-26T09:01:09;6.20;99.90
39371;DHT22;25099;51.946;4.838;2024-02-26T09:03:34;6.20;99.90
39371;DHT22;25099;51.946;4.838;2024-02-26T09:06:01;6.20;99.90
39371;DHT22;25099;51.946;4.838;2024-02-26T09:08:27;6.20;99.90
39371;DHT22;25099;51.946;4.838;2024-02-26T09:10:53;6.20;99.90
39371;DHT22;25099;51.946;4.838;2024-02-26T09:13:18;6.20;99.90
39371;DHT22;25099;51.946;4.838;2024-02-26T09:15:44;6.20;99.90
39371;DHT22;25099;51.946;4.838;2024-02-26T09:18:09;6.30;99.90
39371;DHT22;25099;51.946;4.838;2024-02-26T09:20:35;6.20;99.90
39371;DHT22;25099;51.946;4.838;2024-02-26T09:23:02;6.20;99.90
39371;DHT22;25099;51.946;4.838;2024-02-26T09:25:28;6.20;99.90
39371;DHT22;25099;51.946;4.838;2024-02-26T09:27:53;6.20;99.90
39371;DHT22;25099;51.946;4.838;2024-02-26T09:30:19;6.30;99.90
39371;DHT22;25099;51.946;4.838;2024-02-26T09:32:46;6.30;99.90
39371;DHT22;25099;51.946;4.838;2024-02-26T09:35:13;6.30;99.90
39371;DHT22;25099;51.946;4.838;2024-02-26T09:37:39;6.30;99.90
39371;DHT22;25099;51.946;4.838;2024-02-26T09:40:05;6.20;99.90
39371;DHT22;25099;51.946;4.838;2024-02-26T09:42:38;6.20;99.90
39371;DHT22;25099;51.946;4.838;2024-02-26T09:45:11;6.20;99.90
39371;DHT22;25099;51.946;4.838;2024-02-26T09:47:38;6.20;99.90
39371;DHT22;25099;51.946;4.838;2024-02-26T09:50:06;6.20;99.90
39371;DHT22;25099;51.946;4.838;2024-02-26T09:52:35;6.20;99.90
39371;DHT22;25099;51.946;4.838;2024-02-26T09:55:04;6.20;99.90
39371;DHT22;25099;51.946;4.838;2024-02-26T09:57:29;6.20;99.90
39371;DHT22;25099;51.946;4.838;2024-02-26T09:59:59;6.20;99.90
39371;DHT22;25099;51.946;4.838;2024-02-26T10:02:29;6.20;99.90
39371;DHT22;25099;51.946;4.838;2024-02-26T10:04:57;6.20;99.90
39371;DHT22;25099;51.946;4.838;2024-02-26T10:07:26;6.10;99.90
39371;DHT22;25099;51.946;4.838;2024-02-26T10:09:55;6.10;99.90
39371;DHT22;25099;51.946;4.838;2024-02-26T10:12:22;6.20;99.90
39371;DHT22;25099;51.946;4.838;2024-02-26T10:14:48;5.30;99.90
39371;DHT22;25099;51.946;4.838;2024-02-26T10:17:14;6.10;99.90
39371;DHT22;25099;51.946;4.838;2024-02-26T10:19:40;6.10;99.90
39371;DHT22;25099;51.946;4.838;2024-02-26T10:22:06;6.10;99.90
39371;DHT22;25099;51.946;4.838;2024-02-26T10:24:31;6.10;99.90
39371;DHT22;25099;51.946;4.838;2024-02-26T10:26:57;6.10;99.90
39371;DHT22;25099;51.946;4.838;2024-02-26T10:29:26;6.10;99.90
39371;DHT22;25099;51.946;4.838;2024-02-26T10:31:52;6.10;99.90
39371;DHT22;25099;51.946;4.838;2024-02-26T10:34:19;6.10;99.90
39371;DHT22;25099;51.946;4.838;2024-02-26T10:36:44;6.10;99.90
39371;DHT22;25099;51.946;4.838;2024-02-26T10:39:13;6.10;99.90
39371;DHT22;25099;51.946;4.838;2024-02-26T10:41:43;6.20;99.90
39371;DHT22;25099;51.946;4.838;2024-02-26T10:44:10;6.20;99.90
39371;DHT22;25099;51.946;4.838;2024-02-26T10:46:40;6.20;99.90
39371;DHT22;25099;51.946;4.838;2024-02-26T10:49:08;6.20;99.90
39371;DHT22;25099;51.946;4.838;2024-02-26T10:51:38;6.20;99.90
39371;DHT22;25099;51.946;4.838;2024-02-26T10:54:04;6.20;99.90
39371;DHT22;25099;51.946;4.838;2024-02-26T10:56:34;6.20;99.90
39371;DHT22;25099;51.946;4.838;2024-02-26T10:59:00;6.20;99.90
39371;DHT22;25099;51.946;4.838;2024-02-26T11:01:27;6.10;99.90
39371;DHT22;25099;51.946;4.838;2024-02-26T11:03:55;6.10;99.90
39371;DHT22;25099;51.946;4.838;2024-02-26T11:06:21;6.10;99.90
39371;DHT22;25099;51.946;4.838;2024-02-26T11:08:50;6.20;99.90
39371;DHT22;25099;51.946;4.838;2024-02-26T11:11:17;6.20;99.90
39371;DHT22;25099;51.946;4.838;2024-02-26T11:13:46;6.20;99.90
39371;DHT22;25099;51.946;4.838;2024-02-26T11:16:18;6.20;99.90
39371;DHT22;25099;51.946;4.838;2024-02-26T11:18:44;6.20;99.90
39371;DHT22;25099;51.946;4.838;2024-02-26T11:21:14;6.30;99.90
39371;DHT22;25099;51.946;4.838;2024-02-26T11:23:40;6.20;99.90
39371;DHT22;25099;51.946;4.838;2024-02-26T11:26:07;6.30;99.90
39371;DHT22;25099;51.946;4.838;2024-02-26T11:28:34;6.30;99.90
39371;DHT22;25099;51.946;4.838;2024-02-26T11:31:02;6.30;99.90
39371;DHT22;25099;51.946;4.838;2024-02-26T11:33:29;6.30;99.90
39371;DHT22;25099;51.946;4.838;2024-02-26T11:35:55;6.30;99.90
39371;DHT22;25099;51.946;4.838;2024-02-26T11:38:23;6.20;99.90
39371;DHT22;25099;51.946;4.838;2024-02-26T11:40:50;6.30;99.90
39371;DHT22;25099;51.946;4.838;2024-02-26T11:43:15;6.30;99.90
39371;DHT22;25099;51.946;4.838;2024-02-26T11:48:20;6.30;99.90
39371;DHT22;25099;51.946;4.838;2024-02-26T11:50:48;6.40;99.90
39371;DHT22;25099;51.946;4.838;2024-02-26T11:53:26;6.50;99.90
39371;DHT22;25099;51.946;4.838;2024-02-26T11:58:43;6.50;99.90
39371;DHT22;25099;51.946;4.838;2024-02-26T12:01:40;6.50;99.90
39371;DHT22;25099;51.946;4.838;2024-02-26T12:04:09;6.50;99.90
39371;DHT22;25099;51.946;4.838;2024-02-26T12:06:41;6.50;99.90
39371;DHT22;25099;51.946;4.838;2024-02-26T12:09:07;6.50;99.90
39371;DHT22;25099;51.946;4.838;2024-02-26T12:11:37;6.60;99.90
39371;DHT22;25099;51.946;4.838;2024-02-26T12:14:03;6.50;99.90
39371;DHT22;25099;51.946;4.838;2024-02-26T12:16:40;6.50;99.90
39371;DHT22;25099;51.946;4.838;2024-02-26T12:19:09;6.60;99.90
39371;DHT22;25099;51.946;4.838;2024-02-26T12:21:36;6.60;99.90
39371;DHT22;25099;51.946;4.838;2024-02-26T12:24:14;6.60;99.90
39371;DHT22;25099;51.946;4.838;2024-02-26T12:26:43;6.60;99.90
39371;DHT22;25099;51.946;4.838;2024-02-26T12:29:09;6.60;99.90
39371;DHT22;25099;51.946;4.838;2024-02-26T12:31:36;6.60;99.90
39371;DHT22;25099;51.946;4.838;2024-02-26T12:34:03;6.60;99.90
39371;DHT22;25099;51.946;4.838;2024-02-26T12:36:29;6.70;99.90
39371;DHT22;25099;51.946;4.838;2024-02-26T12:38:55;6.70;99.90
39371;DHT22;25099;51.946;4.838;2024-02-26T12:41:22;6.70;99.90
39371;DHT22;25099;51.946;4.838;2024-02-26T12:43:48;6.70;99.90
39371;DHT22;25099;51.946;4.838;2024-02-26T12:46:13;6.70;99.90
39371;DHT22;25099;51.946;4.838;2024-02-26T12:48:43;6.70;99.90
39371;DHT22;25099;51.946;4.838;2024-02-26T12:51:09;6.70;99.90
39371;DHT22;25099;51.946;4.838;2024-02-26T12:53:35;6.70;99.90
39371;DHT22;25099;51.946;4.838;2024-02-26T12:56:02;6.70;99.90
39371;DHT22;25099;51.946;4.838;2024-02-26T12:58:29;6.70;99.90
39371;DHT22;25099;51.946;4.838;2024-02-26T13:00:56;6.80;99.90
39371;DHT22;25099;51.946;4.838;2024-02-26T13:03:22;6.70;99.90
39371;DHT22;25099;51.946;4.838;2024-02-26T13:05:49;6.80;99.90
39371;DHT22;25099;51.946;4.838;2024-02-26T13:08:20;6.80;99.90
39371;DHT22;25099;51.946;4.838;2024-02-26T13:10:46;6.80;99.90
39371;DHT22;25099;51.946;4.838;2024-02-26T13:13:14;6.80;99.90
39371;DHT22;25099;51.946;4.838;2024-02-26T13:15:41;6.90;99.90
39371;DHT22;25099;51.946;4.838;2024-02-26T13:18:11;6.90;99.90
39371;DHT22;25099;51.946;4.838;2024-02-26T13:20:37;6.90;99.90
39371;DHT22;25099;51.946;4.838;2024-02-26T13:23:07;6.90;99.90
39371;DHT22;25099;51.946;4.838;2024-02-26T13:25:36;6.90;99.90
39371;DHT22;25099;51.946;4.838;2024-02-26T13:28:09;7.00;99.90
39371;DHT22;25099;51.946;4.838;2024-02-26T13:30:39;6.90;99.90
39371;DHT22;25099;51.946;4.838;2024-02-26T13:33:09;6.90;99.90
39371;DHT22;25099;51.946;4.838;2024-02-26T13:35:35;6.90;99.90
39371;DHT22;25099;51.946;4.838;2024-02-26T13:38:02;6.90;99.90
39371;DHT22;25099;51.946;4.838;2024-02-26T13:40:28;7.00;99.90
39371;DHT22;25099;51.946;4.838;2024-02-26T13:42:54;6.90;99.90
39371;DHT22;25099;51.946;4.838;2024-02-26T13:45:20;6.90;99.90
39371;DHT22;25099;51.946;4.838;2024-02-26T13:47:45;6.90;99.90
39371;DHT22;25099;51.946;4.838;2024-02-26T13:50:11;6.90;99.90
39371;DHT22;25099;51.946;4.838;2024-02-26T13:52:36;6.80;99.90
39371;DHT22;25099;51.946;4.838;2024-02-26T13:55:02;6.90;99.90
39371;DHT22;25099;51.946;4.838;2024-02-26T13:57:28;6.90;99.90
39371;DHT22;25099;51.946;4.838;2024-02-26T13:59:55;6.90;99.90
39371;DHT22;25099;51.946;4.838;2024-02-26T14:02:21;6.90;99.90
39371;DHT22;25099;51.946;4.838;2024-02-26T14:04:47;6.90;99.90
39371;DHT22;25099;51.946;4.838;2024-02-26T14:07:13;6.90;99.90
39371;DHT22;25099;51.946;4.838;2024-02-26T14:09:39;7.00;99.90
39371;DHT22;25099;51.946;4.838;2024-02-26T14:12:04;6.90;99.90
39371;DHT22;25099;51.946;4.838;2024-02-26T14:14:30;7.00;99.90
39371;DHT22;25099;51.946;4.838;2024-02-26T14:16:58;6.90;99.90
39371;DHT22;25099;51.946;4.838;2024-02-26T14:19:24;7.00;99.90
39371;DHT22;25099;51.946;4.838;2024-02-26T14:21:49;7.00;99.90
39371;DHT22;25099;51.946;4.838;2024-02-26T14:24:15;7.00;99.90
39371;DHT22;25099;51.946;4.838;2024-02-26T14:26:41;6.90;99.90
39371;DHT22;25099;51.946;4.838;2024-02-26T14:29:06;6.90;99.90
39371;DHT22;25099;51.946;4.838;2024-02-26T14:31:32;6.90;99.90
39371;DHT22;25099;51.946;4.838;2024-02-26T14:33:58;7.00;99.90
39371;DHT22;25099;51.946;4.838;2024-02-26T14:36:24;7.70;99.90
39371;DHT22;25099;51.946;4.838;2024-02-26T14:38:50;7.10;99.90
39371;DHT22;25099;51.946;4.838;2024-02-26T14:41:16;7.10;99.90
39371;DHT22;25099;51.946;4.838;2024-02-26T14:43:41;7.10;99.90
39371;DHT22;25099;51.946;4.838;2024-02-26T14:46:07;7.10;99.90
39371;DHT22;25099;51.946;4.838;2024-02-26T14:48:33;7.00;99.90
39371;DHT22;25099;51.946;4.838;2024-02-26T14:50:59;7.00;99.90
39371;DHT22;25099;51.946;4.838;2024-02-26T14:53:25;7.10;99.90
39371;DHT22;25099;51.946;4.838;2024-02-26T14:55:51;7.00;99.90
39371;DHT22;25099;51.946;4.838;2024-02-26T14:58:17;8.20;99.90
39371;DHT22;25099;51.946;4.838;2024-02-26T15:00:43;7.10;99.90
39371;DHT22;25099;51.946;4.838;2024-02-26T15:03:09;7.10;99.90
39371;DHT22;25099;51.946;4.838;2024-02-26T15:05:34;7.20;99.90
39371;DHT22;25099;51.946;4.838;2024-02-26T15:08:00;7.20;99.90
39371;DHT22;25099;51.946;4.838;2024-02-26T15:10:26;7.10;99.90
39371;DHT22;25099;51.946;4.838;2024-02-26T15:12:52;7.40;99.90
39371;DHT22;25099;51.946;4.838;2024-02-26T15:15:21;7.10;99.90
39371;DHT22;25099;51.946;4.838;2024-02-26T15:17:47;7.10;99.90
39371;DHT22;25099;51.946;4.838;2024-02-26T15:20:14;7.70;99.90
39371;DHT22;25099;51.946;4.838;2024-02-26T15:22:40;7.10;99.90
39371;DHT22;25099;51.946;4.838;2024-02-26T15:25:07;7.10;99.90
39371;DHT22;25099;51.946;4.838;2024-02-26T15:27:33;7.10;99.90
39371;DHT22;25099;51.946;4.838;2024-02-26T15:29:59;7.10;99.90
39371;DHT22;25099;51.946;4.838;2024-02-26T15:32:26;8.20;99.90
39371;DHT22;25099;51.946;4.838;2024-02-26T15:34:53;7.10;99.90
39371;DHT22;25099;51.946;4.838;2024-02-26T15:37:18;7.10;99.90
39371;DHT22;25099;51.946;4.838;2024-02-26T15:39:53;7.10;99.90
39371;DHT22;25099;51.946;4.838;2024-02-26T15:42:18;7.00;99.90
39371;DHT22;25099;51.946;4.838;2024-02-26T15:44:44;7.00;99.90